createdAt,value
2019-05-17T00:01:29.095Z,32.30
2019-05-17T00:03:56.398Z,23.90
2019-05-17T00:06:20.932Z,35.10
2019-05-17T00:08:47.263Z,38.07
2019-05-17T00:11:12.442Z,65.80
2019-05-17T00:13:38.727Z,25.97
2019-05-17T00:16:07.193Z,24.00
2019-05-17T00:18:32.520Z,34.00
2019-05-17T00:20:57.639Z,196.27
2019-05-17T00:23:22.734Z,300.37
2019-05-17T00:25:47.922Z,33.13
2019-05-17T00:28:16.070Z,82.87
2019-05-17T00:30:40.735Z,49.57
2019-05-17T00:33:07.803Z,28.17
2019-05-17T00:35:32.594Z,36.53
2019-05-17T00:37:57.689Z,40.87
2019-05-17T00:40:22.810Z,228.97
2019-05-17T00:42:48.596Z,27.70
2019-05-17T00:45:14.554Z,86.03
2019-05-17T00:47:39.666Z,54.20
2019-05-17T00:50:07.227Z,50.40
2019-05-17T00:52:31.785Z,168.20
2019-05-17T00:54:56.917Z,50.37
2019-05-17T00:57:22.054Z,209.33
2019-05-17T00:59:47.679Z,43.83
2019-05-17T01:02:12.919Z,32.50
2019-05-17T01:04:38.005Z,42.77
2019-05-17T01:07:03.310Z,151.93
2019-05-17T01:09:28.405Z,262.33
2019-05-17T01:11:53.503Z,132.37
2019-05-17T01:14:18.785Z,50.33
2019-05-17T01:16:47.326Z,40.87
2019-05-17T01:19:11.610Z,57.13
2019-05-17T01:21:36.885Z,59.50
2019-05-17T01:24:03.342Z,267.93
2019-05-17T01:26:31.421Z,177.37
2019-05-17T01:28:57.315Z,66.30
2019-05-17T01:31:22.545Z,326.47
2019-05-17T01:33:47.762Z,436.57
2019-05-17T01:36:12.855Z,57.00
2019-05-17T01:38:37.972Z,60.70
2019-05-17T01:41:03.146Z,85.33
2019-05-17T01:43:28.237Z,197.57
2019-05-17T01:45:53.365Z,148.40
2019-05-17T01:48:18.475Z,132.53
2019-05-17T01:50:43.625Z,97.57
2019-05-17T01:53:08.722Z,62.17
2019-05-17T01:55:33.863Z,122.63
2019-05-17T01:57:58.957Z,178.40
2019-05-17T02:00:26.430Z,103.33
2019-05-17T02:02:52.598Z,226.53
2019-05-17T02:05:18.358Z,112.47
2019-05-17T02:07:43.478Z,128.60
2019-05-17T02:10:09.178Z,134.87
2019-05-17T02:12:34.310Z,142.43
2019-05-17T02:14:59.407Z,115.90
2019-05-17T02:17:26.590Z,115.53
2019-05-17T02:19:51.694Z,65.90
2019-05-17T02:22:16.947Z,60.60
2019-05-17T02:24:41.997Z,63.00
2019-05-17T02:27:07.099Z,70.50
2019-05-17T02:29:32.253Z,60.30
2019-05-17T02:31:57.886Z,97.20
2019-05-17T02:34:23.363Z,37.47
2019-05-17T02:36:48.490Z,134.13
2019-05-17T02:39:13.621Z,101.97
2019-05-17T02:41:38.714Z,176.57
2019-05-17T02:44:04.047Z,149.13
2019-05-17T02:46:29.150Z,277.67
2019-05-17T02:48:54.282Z,117.60
2019-05-17T02:51:19.391Z,64.83
2019-05-17T02:53:44.499Z,188.57
2019-05-17T02:56:12.987Z,174.83
2019-05-17T02:58:37.313Z,147.13
2019-05-17T03:01:03.782Z,246.73
2019-05-17T03:03:32.114Z,106.57
2019-05-17T03:05:56.046Z,108.60
2019-05-17T03:08:23.540Z,200.13
2019-05-17T03:10:47.980Z,210.60
2019-05-17T03:13:17.143Z,113.50
2019-05-17T03:15:43.108Z,51.60
2019-05-17T03:18:06.558Z,45.73
2019-05-17T03:20:33.065Z,25.97
2019-05-17T03:22:58.344Z,56.17
2019-05-17T03:25:24.025Z,121.37
2019-05-17T03:27:49.256Z,50.43
2019-05-17T03:30:18.330Z,22.90
2019-05-17T03:32:47.834Z,53.73
2019-05-17T03:35:15.976Z,62.07
2019-05-17T03:37:38.134Z,27.93
2019-05-17T03:40:21.669Z,199.17
2019-05-17T03:42:32.826Z,172.80
2019-05-17T03:44:56.927Z,78.00
2019-05-17T03:47:22.695Z,75.93
2019-05-17T03:49:47.966Z,147.97
2019-05-17T03:52:13.724Z,218.93
2019-05-17T03:54:38.885Z,208.57
2019-05-17T03:57:03.989Z,127.70
2019-05-17T03:59:29.146Z,315.97
2019-05-17T04:01:54.248Z,244.50
2019-05-17T04:04:22.651Z,102.73
2019-05-17T04:06:46.182Z,154.30
2019-05-17T04:09:13.804Z,70.03
2019-05-17T04:11:38.001Z,153.90
2019-05-17T04:14:03.269Z,130.43
2019-05-17T04:16:29.184Z,160.90
2019-05-17T04:18:54.282Z,135.30
2019-05-17T04:21:19.406Z,201.97
2019-05-17T04:23:44.503Z,23.17
2019-05-17T04:26:09.639Z,149.27
2019-05-17T04:28:34.742Z,69.77
2019-05-17T04:31:02.565Z,32.40
2019-05-17T04:33:26.578Z,43.27
2019-05-17T04:35:54.117Z,57.27
2019-05-17T04:38:18.410Z,135.33
2019-05-17T04:40:43.511Z,77.23
2019-05-17T04:43:08.646Z,31.43
2019-05-17T04:45:33.944Z,48.33
2019-05-17T04:47:59.066Z,37.30
2019-05-17T04:50:24.159Z,35.23
2019-05-17T04:52:49.239Z,35.60
2019-05-17T04:55:15.263Z,49.47
2019-05-17T04:57:43.330Z,41.23
2019-05-17T05:00:07.878Z,38.17
2019-05-17T05:02:33.285Z,86.90
2019-05-17T05:04:58.424Z,106.47
2019-05-17T05:07:23.519Z,35.50
2019-05-17T05:09:48.735Z,133.67
2019-05-17T05:12:13.831Z,288.53
2019-05-17T05:14:38.945Z,218.83
2019-05-17T05:17:04.091Z,188.57
2019-05-17T05:19:29.181Z,145.40
2019-05-17T05:21:54.319Z,28.70
2019-05-17T05:24:19.536Z,139.73
2019-05-17T05:26:45.634Z,237.07
2019-05-17T05:29:12.759Z,118.03
2019-05-17T05:31:37.487Z,71.57
2019-05-17T05:34:02.570Z,71.43
2019-05-17T05:36:28.637Z,85.33
2019-05-17T05:38:53.761Z,48.10
2019-05-17T05:41:18.866Z,48.37
2019-05-17T05:43:43.990Z,45.97
2019-05-17T05:46:11.532Z,25.37
2019-05-17T05:48:35.841Z,34.53
2019-05-17T05:51:02.925Z,34.90
2019-05-17T05:53:27.702Z,29.13
2019-05-17T05:55:52.799Z,36.43
2019-05-17T05:58:17.902Z,28.50
2019-05-17T06:00:43.207Z,26.50
2019-05-17T06:03:09.283Z,21.97
2019-05-17T06:05:34.442Z,28.40
2019-05-17T06:07:59.536Z,26.87
2019-05-17T06:10:24.660Z,22.13
2019-05-17T06:12:51.720Z,20.97
2019-05-17T06:15:16.770Z,21.50
2019-05-17T06:17:42.861Z,21.93
2019-05-17T06:20:08.518Z,18.53
2019-05-17T06:22:33.611Z,17.70
2019-05-17T06:24:58.715Z,17.93
2019-05-17T06:27:24.124Z,17.97
2019-05-17T06:29:51.344Z,15.37
2019-05-17T06:32:15.957Z,17.60
2019-05-17T06:34:42.318Z,16.40
2019-05-17T06:37:07.685Z,15.50
2019-05-17T06:39:33.102Z,14.50
2019-05-17T06:41:58.561Z,13.30
2019-05-17T06:44:24.232Z,13.20
2019-05-17T06:46:51.758Z,12.60
2019-05-17T06:49:16.250Z,13.10
2019-05-17T06:51:42.594Z,12.17
2019-05-17T06:54:07.979Z,10.87
2019-05-17T06:56:33.154Z,10.97
2019-05-17T06:58:58.336Z,10.83
2019-05-17T07:01:23.522Z,10.97
2019-05-17T07:03:49.523Z,11.57
2019-05-17T07:06:16.329Z,10.17
2019-05-17T07:08:41.541Z,10.83
2019-05-17T07:11:06.647Z,12.30
2019-05-17T07:13:31.741Z,12.20
2019-05-17T07:15:56.883Z,11.30
2019-05-17T07:18:21.995Z,12.18
2019-05-17T07:20:47.130Z,11.03
2019-05-17T07:23:12.239Z,12.78
2019-05-17T07:25:39.435Z,11.63
2019-05-17T07:28:04.102Z,10.03
2019-05-17T07:30:30.543Z,10.68
2019-05-17T07:32:55.711Z,8.43
2019-05-17T07:35:20.807Z,9.33
2019-05-17T07:37:45.923Z,9.28
2019-05-17T07:40:11.406Z,10.53
2019-05-17T07:42:39.593Z,12.68
2019-05-17T07:45:04.798Z,12.40
2019-05-17T07:47:29.945Z,11.97
2019-05-17T07:49:55.077Z,12.27
2019-05-17T07:52:20.675Z,13.15
2019-05-17T07:54:45.783Z,13.00
2019-05-17T07:57:10.910Z,14.50
2019-05-17T07:59:36.194Z,14.68
2019-05-17T08:02:01.464Z,13.50
2019-05-17T08:04:26.602Z,11.68
2019-05-17T08:06:51.706Z,14.17
2019-05-17T08:09:16.801Z,12.43
2019-05-17T08:11:41.951Z,12.43
2019-05-17T08:14:07.065Z,14.13
2019-05-17T08:16:32.184Z,10.90
2019-05-17T08:18:57.277Z,11.07
2019-05-17T08:21:22.507Z,10.93
2019-05-17T08:23:47.601Z,12.47
2019-05-17T08:26:13.670Z,12.17
2019-05-17T08:28:40.448Z,12.20
2019-05-17T08:31:05.756Z,10.57
2019-05-17T08:33:31.101Z,12.57
2019-05-17T08:35:56.206Z,14.00
2019-05-17T08:38:21.306Z,12.73
2019-05-17T08:40:46.428Z,13.05
2019-05-17T08:43:11.517Z,11.27
2019-05-17T08:45:36.741Z,11.50
2019-05-17T08:48:01.868Z,11.17
2019-05-17T08:50:29.279Z,12.87
2019-05-17T08:52:53.858Z,14.30
2019-05-17T08:55:20.495Z,13.73
2019-05-17T08:57:45.702Z,15.50
2019-05-17T09:00:11.167Z,11.17
2019-05-17T09:02:36.322Z,10.63
2019-05-17T09:05:01.425Z,13.40
2019-05-17T09:07:26.552Z,13.40
2019-05-17T09:09:51.673Z,15.23
2019-05-17T09:12:17.048Z,11.30
2019-05-17T09:14:42.169Z,11.60
2019-05-17T09:17:07.277Z,13.97
2019-05-17T09:19:33.869Z,15.40
2019-05-17T09:21:59.901Z,16.37
2019-05-17T09:24:26.402Z,12.77
2019-05-17T09:26:51.548Z,11.30
2019-05-17T09:29:16.641Z,11.27
2019-05-17T09:31:41.779Z,10.00
2019-05-17T09:34:06.883Z,10.17
2019-05-17T09:36:32.292Z,12.20
2019-05-17T09:39:00.112Z,13.30
2019-05-17T09:41:25.076Z,12.80
2019-05-17T09:43:50.218Z,13.07
2019-05-17T09:46:15.326Z,10.73
2019-05-17T09:48:40.449Z,10.53
2019-05-17T09:51:05.539Z,10.27
2019-05-17T09:53:30.904Z,10.07
2019-05-17T09:55:56.085Z,10.80
2019-05-17T09:58:21.770Z,10.00
2019-05-17T10:00:49.188Z,10.50
2019-05-17T10:03:13.690Z,9.70
2019-05-17T10:05:40.578Z,10.43
2019-05-17T10:08:05.771Z,11.17
2019-05-17T10:10:30.897Z,9.33
2019-05-17T10:12:56.026Z,9.78
2019-05-17T10:15:21.121Z,11.67
2019-05-17T10:17:46.233Z,10.13
2019-05-17T10:20:11.374Z,10.63
2019-05-17T10:22:36.465Z,10.82
2019-05-17T10:25:01.586Z,9.28
2019-05-17T10:27:26.681Z,10.60
2019-05-17T10:29:51.942Z,12.43
2019-05-17T10:32:17.103Z,10.55
2019-05-17T10:34:42.197Z,11.40
2019-05-17T10:37:07.313Z,10.08
2019-05-17T10:39:32.405Z,10.20
2019-05-17T10:41:57.530Z,10.75
2019-05-17T10:44:22.626Z,10.48
2019-05-17T10:46:47.985Z,9.38
2019-05-17T10:49:13.085Z,10.05
2019-05-17T10:51:40.133Z,9.75
2019-05-17T10:54:04.966Z,9.35
2019-05-17T10:56:30.055Z,9.28
2019-05-17T10:58:55.170Z,9.93
2019-05-17T11:01:20.493Z,8.58
2019-05-17T11:03:45.659Z,9.68
2019-05-17T11:06:11.105Z,10.05
2019-05-17T11:08:36.257Z,14.25
2019-05-17T11:11:01.374Z,11.15
2019-05-17T11:13:26.469Z,11.90
2019-05-17T11:15:51.676Z,10.45
2019-05-17T11:18:16.768Z,13.28
2019-05-17T11:20:41.854Z,9.83
2019-05-17T11:23:06.996Z,10.93
2019-05-17T11:25:32.094Z,11.70
2019-05-17T11:27:57.209Z,10.10
2019-05-17T11:30:22.301Z,10.28
2019-05-17T11:32:47.574Z,12.20
2019-05-17T11:35:12.669Z,8.98
2019-05-17T11:37:37.766Z,9.88
2019-05-17T11:40:02.894Z,9.53
2019-05-17T11:42:28.067Z,10.03
2019-05-17T11:44:53.198Z,9.08
2019-05-17T11:47:18.542Z,9.45
2019-05-17T11:49:43.648Z,10.45
2019-05-17T11:52:08.747Z,8.90
2019-05-17T11:54:34.083Z,10.05
2019-05-17T11:56:59.216Z,8.95
2019-05-17T11:59:24.542Z,9.25
2019-05-17T12:01:49.679Z,8.00
2019-05-17T12:04:15.119Z,8.33
2019-05-17T12:06:40.714Z,8.95
2019-05-17T12:09:06.838Z,9.18
2019-05-17T12:11:31.934Z,8.35
2019-05-17T12:13:57.233Z,8.43
2019-05-17T12:16:22.323Z,7.95
2019-05-17T12:18:47.531Z,6.70
2019-05-17T12:21:12.617Z,7.17
2019-05-17T12:23:37.718Z,8.25
2019-05-17T12:26:03.151Z,7.85
2019-05-17T12:28:28.418Z,7.95
2019-05-17T12:30:53.548Z,8.30
2019-05-17T12:33:18.658Z,7.70
2019-05-17T12:35:43.760Z,8.55
2019-05-17T12:38:08.878Z,7.72
2019-05-17T12:40:33.965Z,6.65
2019-05-17T12:42:59.077Z,7.78
2019-05-17T12:45:24.165Z,7.35
2019-05-17T12:47:49.263Z,7.58
2019-05-17T12:50:15.442Z,6.78
2019-05-17T12:52:40.803Z,6.30
2019-05-17T12:55:05.990Z,7.20
2019-05-17T12:57:31.089Z,9.03
2019-05-17T12:59:56.185Z,6.72
2019-05-17T13:02:21.310Z,6.83
2019-05-17T13:04:46.470Z,7.28
2019-05-17T13:07:11.609Z,6.45
2019-05-17T13:09:36.702Z,6.55
2019-05-17T13:12:01.807Z,7.33
2019-05-17T13:14:26.925Z,8.00
2019-05-17T13:16:52.065Z,8.08
2019-05-17T13:19:17.201Z,6.80
2019-05-17T13:21:42.290Z,8.43
2019-05-17T13:24:07.426Z,10.80
2019-05-17T13:26:32.526Z,8.93
2019-05-17T13:28:57.598Z,10.63
2019-05-17T13:31:22.742Z,17.77
2019-05-17T13:33:47.826Z,8.18
2019-05-17T13:36:14.743Z,8.00
2019-05-17T13:38:39.812Z,8.75
2019-05-17T13:41:05.028Z,8.35
2019-05-17T13:43:30.205Z,9.80
2019-05-17T13:45:55.368Z,7.25
2019-05-17T13:48:20.565Z,7.65
2019-05-17T13:50:46.730Z,6.60
2019-05-17T13:53:11.861Z,6.95
2019-05-17T13:55:36.950Z,6.87
2019-05-17T13:58:02.063Z,7.08
2019-05-17T14:00:27.234Z,6.90
2019-05-17T14:02:52.870Z,7.35
2019-05-17T14:05:18.217Z,6.97
2019-05-17T14:07:43.310Z,7.87
2019-05-17T14:10:24.567Z,7.15
2019-05-17T14:12:35.546Z,6.40
2019-05-17T14:15:00.883Z,6.37
2019-05-17T14:17:26.277Z,8.08
2019-05-17T14:19:51.397Z,6.28
2019-05-17T14:22:16.486Z,6.47
2019-05-17T14:24:41.624Z,7.75
2019-05-17T14:27:06.719Z,6.92
2019-05-17T14:29:31.858Z,7.22
2019-05-17T14:31:57.910Z,6.90
2019-05-17T14:34:23.012Z,6.25
2019-05-17T14:36:48.113Z,6.65
2019-05-17T14:39:13.207Z,6.25
2019-05-17T14:41:38.322Z,5.87
2019-05-17T14:44:03.437Z,6.55
2019-05-17T14:46:28.550Z,9.68
2019-05-17T14:48:53.644Z,6.33
2019-05-17T14:51:18.834Z,6.15
2019-05-17T14:53:44.223Z,6.00
2019-05-17T14:56:09.314Z,6.37
2019-05-17T14:58:34.459Z,7.03
2019-05-17T15:00:59.542Z,7.55
2019-05-17T15:03:25.231Z,6.20
2019-05-17T15:05:50.486Z,6.05
2019-05-17T15:08:15.612Z,6.05
2019-05-17T15:10:40.719Z,5.80
2019-05-17T15:13:05.801Z,5.45
2019-05-17T15:15:30.913Z,5.83
2019-05-17T15:17:56.256Z,6.25
2019-05-17T15:20:21.491Z,5.80
2019-05-17T15:22:46.578Z,5.87
2019-05-17T15:25:12.655Z,5.95
2019-05-17T15:27:41.055Z,5.40
2019-05-17T15:30:06.513Z,6.30
2019-05-17T15:32:31.658Z,6.03
2019-05-17T15:34:56.826Z,6.12
2019-05-17T15:37:21.921Z,5.80
2019-05-17T15:39:47.050Z,5.35
2019-05-17T15:42:12.159Z,5.80
2019-05-17T15:44:37.642Z,5.97
2019-05-17T15:47:04.490Z,6.83
2019-05-17T15:49:29.580Z,5.85
2019-05-17T15:51:54.697Z,5.92
2019-05-17T15:54:19.786Z,6.08
2019-05-17T15:56:44.902Z,5.72
2019-05-17T15:59:10.009Z,5.30
2019-05-17T16:01:35.332Z,5.60
2019-05-17T16:04:00.438Z,6.20
2019-05-17T16:06:25.601Z,5.40
2019-05-17T16:08:50.715Z,4.97
2019-05-17T16:11:15.815Z,5.25
2019-05-17T16:13:41.007Z,4.85
2019-05-17T16:16:06.133Z,4.85
2019-05-17T16:18:31.354Z,6.37
2019-05-17T16:20:56.475Z,5.22
2019-05-17T16:23:21.574Z,8.08
2019-05-17T16:25:46.703Z,5.00
2019-05-17T16:28:11.798Z,4.70
2019-05-17T16:30:36.942Z,9.30
2019-05-17T16:33:02.038Z,5.37
2019-05-17T16:35:27.434Z,5.90
2019-05-17T16:37:52.573Z,5.20
2019-05-17T16:40:17.682Z,6.35
2019-05-17T16:42:42.838Z,6.12
2019-05-17T16:45:08.570Z,5.58
2019-05-17T16:47:33.701Z,5.42
2019-05-17T16:49:58.837Z,4.60
2019-05-17T16:52:23.937Z,4.95
2019-05-17T16:54:49.066Z,5.45
2019-05-17T16:57:14.168Z,5.20
2019-05-17T16:59:39.287Z,6.15
2019-05-17T17:02:04.556Z,5.30
2019-05-17T17:04:29.669Z,5.47
2019-05-17T17:06:54.799Z,4.95
2019-05-17T17:09:20.006Z,5.45
2019-05-17T17:11:45.782Z,6.08
2019-05-17T17:14:11.230Z,5.45
2019-05-17T17:16:36.374Z,4.97
2019-05-17T17:19:01.472Z,5.50
2019-05-17T17:21:26.590Z,5.65
2019-05-17T17:23:51.669Z,8.03
2019-05-17T17:26:17.110Z,5.97
2019-05-17T17:28:42.446Z,6.03
2019-05-17T17:31:11.759Z,6.97
2019-05-17T17:33:36.861Z,6.42
2019-05-17T17:36:01.977Z,7.43
2019-05-17T17:38:27.090Z,6.60
2019-05-17T17:40:52.195Z,6.83
2019-05-17T17:43:17.578Z,6.67
2019-05-17T17:45:42.676Z,6.77
2019-05-17T17:48:07.780Z,6.57
2019-05-17T17:50:33.872Z,6.87
2019-05-17T17:52:58.965Z,6.17
2019-05-17T17:55:24.189Z,7.70
2019-05-17T17:57:49.520Z,8.53
2019-05-17T18:00:15.562Z,7.10
2019-05-17T18:02:40.762Z,7.83
2019-05-17T18:05:06.722Z,8.00
2019-05-17T18:07:31.974Z,9.93
2019-05-17T18:09:57.049Z,7.90
2019-05-17T18:12:22.185Z,6.70
2019-05-17T18:14:47.406Z,9.33
2019-05-17T18:17:12.457Z,7.47
2019-05-17T18:19:37.574Z,6.93
2019-05-17T18:22:02.673Z,6.30
2019-05-17T18:24:27.889Z,8.07
2019-05-17T18:26:52.980Z,6.63
2019-05-17T18:29:18.074Z,7.47
2019-05-17T18:31:43.242Z,7.67
2019-05-17T18:34:08.333Z,7.70
2019-05-17T18:36:33.446Z,7.90
2019-05-17T18:38:58.853Z,7.60
2019-05-17T18:41:23.998Z,7.90
2019-05-17T18:43:49.229Z,8.53
2019-05-17T18:46:14.326Z,7.67
2019-05-17T18:48:39.440Z,8.20
2019-05-17T18:51:04.525Z,9.83
2019-05-17T18:53:29.633Z,8.60
2019-05-17T18:55:54.717Z,10.67
2019-05-17T18:58:19.990Z,9.67
2019-05-17T19:00:45.604Z,9.70
2019-05-17T19:03:10.677Z,9.70
2019-05-17T19:05:35.778Z,9.50
2019-05-17T19:08:00.917Z,9.20
2019-05-17T19:10:26.043Z,12.10
2019-05-17T19:12:51.147Z,10.37
2019-05-17T19:15:16.521Z,9.63
2019-05-17T19:17:41.634Z,9.03
2019-05-17T19:20:07.125Z,9.50
2019-05-17T19:22:32.261Z,11.27
2019-05-17T19:24:57.358Z,9.57
2019-05-17T19:27:22.465Z,9.03
2019-05-17T19:29:47.554Z,9.90
2019-05-17T19:32:12.653Z,10.57
2019-05-17T19:34:37.765Z,10.53
2019-05-17T19:37:02.938Z,11.17
2019-05-17T19:39:28.306Z,10.77
2019-05-17T19:41:53.677Z,12.13
2019-05-17T19:44:18.895Z,10.43
2019-05-17T19:46:43.986Z,12.63
2019-05-17T19:49:09.077Z,12.67
2019-05-17T19:51:34.194Z,12.97
2019-05-17T19:54:00.568Z,12.80
2019-05-17T19:56:25.790Z,15.30
2019-05-17T19:58:51.401Z,11.30
2019-05-17T20:01:16.795Z,13.93
2019-05-17T20:03:42.155Z,22.07
2019-05-17T20:06:07.526Z,15.20
2019-05-17T20:08:32.749Z,14.20
2019-05-17T20:10:57.852Z,17.17
2019-05-17T20:13:23.065Z,19.90
2019-05-17T20:15:48.174Z,19.50
2019-05-17T20:18:13.317Z,15.70
2019-05-17T20:20:38.434Z,16.13
2019-05-17T20:23:03.603Z,13.23
2019-05-17T20:25:28.742Z,16.73
2019-05-17T20:27:53.841Z,14.10
2019-05-17T20:30:19.166Z,16.10
2019-05-17T20:32:44.263Z,15.07
2019-05-17T20:35:09.564Z,17.97
2019-05-17T20:37:34.686Z,16.30
2019-05-17T20:39:59.794Z,16.93
2019-05-17T20:42:25.154Z,18.50
2019-05-17T20:44:50.505Z,16.30
2019-05-17T20:47:15.601Z,17.23
2019-05-17T20:49:40.717Z,16.03
2019-05-17T20:52:05.822Z,16.00
2019-05-17T20:54:30.974Z,16.97
2019-05-17T20:56:56.106Z,18.13
2019-05-17T20:59:21.246Z,19.70
2019-05-17T21:01:46.342Z,17.50
2019-05-17T21:04:11.454Z,16.33
2019-05-17T21:06:36.578Z,16.87
2019-05-17T21:09:01.837Z,15.50
2019-05-17T21:11:28.666Z,17.37
2019-05-17T21:13:53.765Z,16.23
2019-05-17T21:16:18.870Z,17.33
2019-05-17T21:18:43.999Z,16.37
2019-05-17T21:21:09.095Z,15.20
2019-05-17T21:23:34.482Z,15.90
2019-05-17T21:25:59.585Z,15.93
2019-05-17T21:28:24.741Z,15.17
2019-05-17T21:30:49.930Z,15.70
2019-05-17T21:33:15.305Z,15.73
2019-05-17T21:35:40.426Z,16.03
2019-05-17T21:38:05.526Z,18.03
2019-05-17T21:40:30.752Z,15.90
2019-05-17T21:42:55.867Z,16.93
2019-05-17T21:45:20.966Z,17.67
2019-05-17T21:47:46.090Z,17.60
2019-05-17T21:50:11.326Z,16.13
2019-05-17T21:52:36.494Z,17.43
2019-05-17T21:55:01.604Z,16.73
2019-05-17T21:57:26.705Z,15.33
2019-05-17T21:59:51.830Z,15.73
2019-05-17T22:02:17.031Z,15.70
2019-05-17T22:04:42.157Z,18.60
2019-05-17T22:07:07.325Z,16.70
2019-05-17T22:09:32.613Z,17.17
2019-05-17T22:12:00.421Z,19.10
2019-05-17T22:14:25.517Z,20.53
2019-05-17T22:16:50.712Z,17.90
2019-05-17T22:19:15.814Z,17.97
2019-05-17T22:21:40.975Z,18.07
2019-05-17T22:24:06.346Z,20.27
2019-05-17T22:26:31.690Z,17.67
2019-05-17T22:28:56.799Z,18.47
2019-05-17T22:31:21.898Z,18.07
2019-05-17T22:33:47.025Z,17.10
2019-05-17T22:36:12.138Z,17.93
2019-05-17T22:38:37.282Z,19.47
2019-05-17T22:41:02.376Z,18.00
2019-05-17T22:43:27.477Z,19.63
2019-05-17T22:45:52.609Z,17.83
2019-05-17T22:48:17.701Z,21.23
2019-05-17T22:50:43.885Z,21.43
2019-05-17T22:53:08.967Z,19.57
2019-05-17T22:55:34.141Z,18.83
2019-05-17T22:57:59.235Z,18.47
2019-05-17T23:00:24.373Z,17.80
2019-05-17T23:02:49.483Z,20.87
2019-05-17T23:05:14.584Z,23.23
2019-05-17T23:07:39.733Z,21.93
2019-05-17T23:10:05.293Z,21.67
2019-05-17T23:12:30.395Z,19.20
2019-05-17T23:14:55.519Z,22.97
2019-05-17T23:17:20.618Z,22.77
2019-05-17T23:19:45.766Z,20.80
2019-05-17T23:22:10.861Z,24.33
2019-05-17T23:24:35.966Z,24.33
2019-05-17T23:27:01.083Z,24.27
2019-05-17T23:29:26.183Z,26.27
2019-05-17T23:31:51.317Z,24.47
2019-05-17T23:34:16.418Z,24.27
2019-05-17T23:36:41.572Z,26.93
2019-05-17T23:39:07.282Z,26.83
2019-05-17T23:41:32.410Z,24.53
2019-05-17T23:43:57.759Z,23.97
2019-05-17T23:46:22.851Z,24.83
2019-05-17T23:48:47.965Z,25.77
2019-05-17T23:51:13.069Z,25.80
2019-05-17T23:53:38.202Z,30.27
2019-05-17T23:56:03.562Z,26.47
2019-05-17T23:58:28.861Z,26.57
